Time;durP1;ratioP1;P1;durP2;ratioP2;P2;SDS_P1;SDS_P2;PMS_P1;PMS_P2;Temp;Humidity;BMP_temperature;BMP_pressure;BME280_temperature;BME280_humidity;BME280_pressure;Samples;Min_cycle;Max_cycle;Signal;HPM_P1;HPM_P2
2021/05/31 00:01:18;;;;;;;4.07;3.70;;;10.00;99.90;;;;;;5014279;28;20270;-65
2021/05/31 00:03:44;;;;;;;5.60;4.47;;;9.90;99.90;;;;;;5014293;28;20248;-65
2021/05/31 00:06:10;;;;;;;4.00;3.70;;;9.90;99.90;;;;;;5014406;28;20180;-65
2021/05/31 00:08:36;;;;;;;4.90;4.50;;;9.90;99.90;;;;;;5014248;28;20166;-65
2021/05/31 00:11:02;;;;;;;4.40;4.00;;;9.90;99.90;;;;;;5013891;28;20430;-65
2021/05/31 00:13:28;;;;;;;4.97;4.53;;;9.90;99.90;;;;;;5014108;28;21039;-65
2021/05/31 00:15:55;;;;;;;5.10;4.40;;;9.80;99.90;;;;;;5014199;28;20401;-65
2021/05/31 00:18:21;;;;;;;4.40;4.00;;;9.80;99.90;;;;;;5014180;28;20179;-65
2021/05/31 00:20:48;;;;;;;4.30;3.80;;;9.80;99.90;;;;;;5013777;28;20798;-65
2021/05/31 00:23:13;;;;;;;4.47;4.00;;;9.80;99.90;;;;;;5014097;28;20419;-65
2021/05/31 00:25:39;;;;;;;3.70;3.40;;;9.80;99.90;;;;;;5013920;28;20913;-65
2021/05/31 00:28:04;;;;;;;4.70;3.63;;;9.80;99.90;;;;;;5013800;28;20670;-65
2021/05/31 00:30:30;;;;;;;3.87;3.57;;;9.80;99.90;;;;;;5013083;28;20194;-65
2021/05/31 00:32:56;;;;;;;4.53;4.23;;;9.80;99.90;;;;;;5013727;28;20284;-65
2021/05/31 00:35:24;;;;;;;6.53;4.53;;;9.80;99.90;;;;;;5013719;28;20166;-65
2021/05/31 00:37:53;;;;;;;3.50;3.30;;;9.80;99.90;;;;;;5013842;28;20163;-65
2021/05/31 00:40:18;;;;;;;3.70;3.50;;;9.80;99.90;;;;;;5012992;28;20943;-65
2021/05/31 00:42:44;;;;;;;4.77;4.20;;;9.90;99.90;;;;;;5013762;28;20416;-65
2021/05/31 00:45:10;;;;;;;6.00;3.80;;;9.80;99.90;;;;;;5013448;28;20181;-65
2021/05/31 00:47:36;;;;;;;4.43;3.70;;;9.80;99.90;;;;;;5013596;28;20180;-65
2021/05/31 00:50:02;;;;;;;4.20;3.90;;;9.80;99.90;;;;;;5013206;28;20401;-65
2021/05/31 00:52:28;;;;;;;4.83;4.40;;;9.90;99.90;;;;;;5013296;28;20203;-65
2021/05/31 00:54:53;;;;;;;4.57;4.23;;;9.80;99.90;;;;;;5013289;28;20412;-65
2021/05/31 00:57:19;;;;;;;3.87;3.57;;;9.80;99.90;;;;;;5013362;28;20254;-65
2021/05/31 00:59:45;;;;;;;4.43;4.03;;;9.80;99.90;;;;;;5012955;28;20316;-65
2021/05/31 01:02:11;;;;;;;4.70;4.30;;;9.80;99.90;;;;;;5013287;28;20432;-65
2021/05/31 01:04:37;;;;;;;5.40;4.90;;;9.80;99.90;;;;;;5013338;28;20420;-65
2021/05/31 01:07:12;;;;;;;7.47;5.20;;;9.70;99.90;;;;;;5013105;28;20893;-65
2021/05/31 01:10:01;;;;;;;5.03;4.53;;;9.70;99.90;;;;;;5012958;28;20235;-65
2021/05/31 01:12:49;;;;;;;4.03;3.63;;;9.70;99.90;;;;;;5013008;28;20456;-65
2021/05/31 01:15:18;;;;;;;5.60;5.10;;;9.70;99.90;;;;;;5012687;28;20384;-65
2021/05/31 01:17:58;;;;;;;4.87;4.47;;;9.70;99.90;;;;;;5012957;28;20492;-65
2021/05/31 01:20:59;;;;;;;4.87;4.33;;;9.70;99.90;;;;;;5012717;28;20412;-65
2021/05/31 01:23:29;;;;;;;4.27;3.97;;;9.60;99.90;;;;;;5012892;28;20409;-65
2021/05/31 01:26:00;;;;;;;4.33;4.03;;;9.60;99.90;;;;;;5012859;28;20483;-65
2021/05/31 01:29:00;;;;;;;4.97;4.30;;;9.60;99.90;;;;;;5012883;28;20440;-65
2021/05/31 01:31:49;;;;;;;4.77;4.37;;;9.50;99.90;;;;;;5012290;28;20944;-65
2021/05/31 01:34:21;;;;;;;4.50;4.20;;;9.50;99.90;;;;;;5012738;28;20935;-65
2021/05/31 01:36:58;;;;;;;3.77;3.50;;;9.50;99.90;;;;;;5012636;28;20475;-65
2021/05/31 01:39:28;;;;;;;5.33;4.93;;;9.40;99.90;;;;;;5012523;28;20396;-65
2021/05/31 01:41:55;;;;;;;4.20;3.80;;;9.30;99.90;;;;;;5011632;28;20498;-65
2021/05/31 01:44:21;;;;;;;4.60;4.20;;;9.30;99.90;;;;;;5011514;28;20508;-65
2021/05/31 01:46:49;;;;;;;4.80;4.40;;;9.30;99.90;;;;;;5012092;28;20843;-65
2021/05/31 01:49:14;;;;;;;5.90;4.03;;;9.30;99.90;;;;;;5012008;28;20408;-65
2021/05/31 01:51:41;;;;;;;8.30;4.27;;;9.30;99.90;;;;;;5012039;28;20439;-65
2021/05/31 01:54:08;;;;;;;5.47;4.80;;;9.30;99.90;;;;;;5012285;28;20397;-65
2021/05/31 01:56:36;;;;;;;5.70;3.93;;;9.20;99.90;;;;;;5012388;28;20400;-65
2021/05/31 01:59:03;;;;;;;4.33;4.00;;;9.20;99.90;;;;;;5012470;28;20436;-65
2021/05/31 02:01:29;;;;;;;4.30;3.90;;;9.20;99.90;;;;;;5011825;28;20436;-65
2021/05/31 02:03:55;;;;;;;5.20;4.80;;;9.10;99.90;;;;;;5012066;28;20408;-65
2021/05/31 02:06:20;;;;;;;4.40;4.10;;;9.10;99.90;;;;;;5012026;28;20442;-65
2021/05/31 02:08:46;;;;;;;8.60;4.27;;;9.10;99.90;;;;;;5012143;28;20169;-65
2021/05/31 02:11:36;;;;;;;4.00;3.70;;;9.00;99.90;;;;;;5011809;28;20193;-65
2021/05/31 02:14:07;;;;;;;5.00;4.50;;;9.00;99.90;;;;;;5012116;28;20176;-65
2021/05/31 02:16:58;;;;;;;4.60;4.07;;;9.00;99.90;;;;;;5012194;28;20404;-65
2021/05/31 02:19:26;;;;;;;6.17;4.60;;;8.90;99.90;;;;;;5011346;28;20405;-65
2021/05/31 02:21:52;;;;;;;5.37;4.87;;;8.90;99.90;;;;;;5011701;28;20787;-65
2021/05/31 02:24:19;;;;;;;5.80;4.13;;;8.80;99.90;;;;;;5011847;28;20404;-65
2021/05/31 02:26:47;;;;;;;5.20;3.33;;;8.80;99.90;;;;;;5011980;28;20753;-65
2021/05/31 02:29:13;;;;;;;4.20;3.90;;;8.70;99.90;;;;;;5011767;28;20419;-65
2021/05/31 02:31:39;;;;;;;4.33;3.93;;;8.60;99.90;;;;;;5011397;28;20424;-65
2021/05/31 02:34:07;;;;;;;4.73;4.30;;;8.60;99.90;;;;;;5011601;28;20404;-65
2021/05/31 02:36:32;;;;;;;4.40;3.50;;;8.70;99.90;;;;;;5011772;28;20407;-65
2021/05/31 02:38:58;;;;;;;3.80;3.50;;;8.60;99.90;;;;;;5011621;28;20832;-65
2021/05/31 02:41:24;;;;;;;4.07;3.63;;;8.60;99.90;;;;;;5011371;28;20208;-65
2021/05/31 02:43:49;;;;;;;5.50;4.13;;;8.50;99.90;;;;;;5012268;28;20318;-64
2021/05/31 02:46:15;;;;;;;4.53;4.10;;;8.50;99.90;;;;;;5011631;28;20180;-64
2021/05/31 02:48:41;;;;;;;4.70;4.30;;;8.50;99.90;;;;;;5011854;28;20173;-64
2021/05/31 02:51:06;;;;;;;3.73;3.40;;;8.40;99.90;;;;;;5011470;28;20723;-64
2021/05/31 02:53:33;;;;;;;3.60;3.30;;;8.40;99.90;;;;;;5012924;28;20200;-64
2021/05/31 02:55:59;;;;;;;4.00;3.70;;;8.40;99.90;;;;;;5015712;28;20576;-64
2021/05/31 02:58:25;;;;;;;4.43;4.10;;;8.30;99.90;;;;;;5015691;28;20923;-65
2021/05/31 03:00:50;;;;;;;4.63;3.93;;;8.30;99.90;;;;;;5015334;28;20511;-64
2021/05/31 03:03:16;;;;;;;3.37;3.07;;;8.30;99.90;;;;;;5015512;28;20181;-64
2021/05/31 03:05:41;;;;;;;5.70;5.17;;;8.20;99.90;;;;;;5015442;28;20182;-64
2021/05/31 03:08:07;;;;;;;4.70;4.37;;;8.20;99.90;;;;;;5015437;28;20569;-64
2021/05/31 03:10:33;;;;;;;4.90;3.50;;;8.20;99.90;;;;;;5015099;28;20189;-64
2021/05/31 03:13:00;;;;;;;3.63;3.33;;;8.10;99.90;;;;;;5015456;28;20703;-64
2021/05/31 03:15:26;;;;;;;4.20;3.80;;;8.10;99.90;;;;;;5015329;28;20167;-64
2021/05/31 03:17:52;;;;;;;6.13;4.50;;;8.00;99.90;;;;;;5015555;28;20919;-64
2021/05/31 03:20:29;;;;;;;4.83;4.33;;;8.00;99.90;;;;;;5014564;28;20419;-64
2021/05/31 03:22:56;;;;;;;4.30;4.00;;;8.00;99.90;;;;;;5015327;28;20399;-64
2021/05/31 03:25:22;;;;;;;4.57;4.13;;;7.90;99.90;;;;;;5015088;28;20415;-64
2021/05/31 03:27:48;;;;;;;4.83;4.00;;;7.90;99.90;;;;;;5015108;28;20410;-64
2021/05/31 03:30:15;;;;;;;4.83;4.43;;;7.90;99.90;;;;;;5014729;28;20763;-64
2021/05/31 03:32:41;;;;;;;4.33;3.93;;;7.90;99.90;;;;;;5015012;28;20185;-64
2021/05/31 03:35:09;;;;;;;3.70;3.47;;;7.90;99.90;;;;;;5014874;28;20404;-64
2021/05/31 03:37:35;;;;;;;4.30;4.00;;;7.70;99.90;;;;;;5014947;28;20992;-65
2021/05/31 03:40:01;;;;;;;4.50;3.77;;;7.70;99.90;;;;;;5014492;28;20402;-64
2021/05/31 03:42:27;;;;;;;5.80;3.80;;;7.60;99.90;;;;;;5014816;28;20514;-64
2021/05/31 03:44:54;;;;;;;3.90;3.60;;;7.60;99.90;;;;;;5014975;28;20275;-64
2021/05/31 03:47:19;;;;;;;4.33;3.80;;;7.60;99.90;;;;;;5014734;28;21046;-64
2021/05/31 03:49:45;;;;;;;4.93;4.43;;;7.60;99.90;;;;;;5014393;28;20207;-64
2021/05/31 03:52:11;;;;;;;4.80;4.37;;;7.60;99.90;;;;;;5014509;28;20267;-64
2021/05/31 03:54:36;;;;;;;6.00;4.60;;;7.60;99.90;;;;;;5014488;28;20538;-64
2021/05/31 03:57:03;;;;;;;4.10;3.80;;;7.70;99.90;;;;;;5014717;28;20185;-64
2021/05/31 03:59:29;;;;;;;4.70;4.30;;;7.70;99.90;;;;;;5014205;28;20267;-64
2021/05/31 04:01:55;;;;;;;3.73;3.43;;;7.70;99.90;;;;;;5014378;28;20420;-64
2021/05/31 04:04:21;;;;;;;5.30;3.77;;;7.70;99.90;;;;;;5013932;28;20411;-65
2021/05/31 04:11:58;;;;;;;4.00;3.70;;;7.80;99.90;;;;;;5014454;28;20222;-64
2021/05/31 04:14:24;;;;;;;6.23;4.00;;;7.80;99.90;;;;;;5014405;28;20494;-64
2021/05/31 04:16:55;;;;;;;3.93;3.63;;;7.90;99.90;;;;;;5013926;28;20411;-64
2021/05/31 04:19:22;;;;;;;6.13;4.83;;;7.90;99.90;;;;;;5013849;28;20460;-65
2021/05/31 04:21:50;;;;;;;5.23;4.73;;;7.90;99.90;;;;;;5013981;28;20445;-65
2021/05/31 04:24:16;;;;;;;6.07;4.17;;;7.90;99.90;;;;;;5013982;28;20406;-64
2021/05/31 04:26:43;;;;;;;4.50;3.60;;;7.90;99.90;;;;;;5013952;28;20470;-64
2021/05/31 04:29:11;;;;;;;8.57;3.83;;;7.90;99.90;;;;;;5013869;28;20452;-64
2021/05/31 04:31:38;;;;;;;4.60;3.40;;;8.00;99.90;;;;;;5013808;28;20423;-64
2021/05/31 04:34:06;;;;;;;5.57;4.73;;;8.00;99.90;;;;;;5013914;28;20418;-64
2021/05/31 04:36:33;;;;;;;3.43;3.17;;;8.00;99.90;;;;;;5013827;28;20455;-64
2021/05/31 04:39:02;;;;;;;4.50;3.40;;;8.10;99.90;;;;;;5013925;28;20502;-64
2021/05/31 04:41:27;;;;;;;4.13;3.73;;;8.10;99.90;;;;;;5013162;28;20446;-64
2021/05/31 04:43:53;;;;;;;4.80;3.90;;;8.20;99.90;;;;;;5013692;28;20400;-64
2021/05/31 04:46:18;;;;;;;4.40;3.90;;;8.30;99.90;;;;;;5013601;28;20168;-64
2021/05/31 04:48:44;;;;;;;6.20;4.80;;;8.40;99.90;;;;;;5013593;28;20215;-64
2021/05/31 04:51:10;;;;;;;3.80;3.50;;;8.40;99.90;;;;;;5013218;28;20183;-64
2021/05/31 04:53:35;;;;;;;4.03;3.63;;;8.60;99.90;;;;;;5013479;28;20795;-64
2021/05/31 04:56:04;;;;;;;3.90;3.60;;;8.60;99.90;;;;;;5013343;28;20226;-64
2021/05/31 04:58:30;;;;;;;3.97;3.67;;;8.90;99.90;;;;;;5013343;28;20165;-64
2021/05/31 05:00:56;;;;;;;4.97;4.57;;;8.90;99.90;;;;;;5013107;28;20854;-64
2021/05/31 05:03:22;;;;;;;4.87;3.60;;;9.10;99.90;;;;;;5013375;28;20216;-65
2021/05/31 05:05:49;;;;;;;4.00;3.70;;;9.30;99.90;;;;;;5013335;28;20404;-64
2021/05/31 05:08:16;;;;;;;4.17;3.80;;;9.40;99.90;;;;;;5013353;28;20412;-65
2021/05/31 05:10:41;;;;;;;4.43;4.13;;;9.60;99.90;;;;;;5012869;28;20474;-64
2021/05/31 05:13:07;;;;;;;4.20;3.80;;;9.90;99.90;;;;;;5012663;28;20865;-65
2021/05/31 05:15:33;;;;;;;4.43;4.00;;;10.10;99.90;;;;;;5013070;28;20685;-64
2021/05/31 05:17:59;;;;;;;3.90;3.40;;;10.20;99.90;;;;;;5012944;28;20532;-64
2021/05/31 05:20:27;;;;;;;4.20;3.80;;;10.30;99.90;;;;;;5012653;28;20401;-64
2021/05/31 05:22:53;;;;;;;4.23;3.73;;;10.40;99.90;;;;;;5013063;28;20200;-64
2021/05/31 05:25:20;;;;;;;4.33;3.93;;;10.50;99.90;;;;;;5012977;28;20491;-65
2021/05/31 05:27:49;;;;;;;5.07;3.70;;;10.50;99.90;;;;;;5012705;28;20401;-64
2021/05/31 05:30:17;;;;;;;4.13;3.50;;;10.60;99.90;;;;;;5012532;28;20415;-64
2021/05/31 05:32:48;;;;;;;4.93;4.43;;;10.60;99.90;;;;;;5012679;28;20455;-65
2021/05/31 05:48:42;;;;;;;5.70;3.53;;;11.30;99.10;;;;;;5012544;28;20809;-65
2021/05/31 05:51:08;;;;;;;4.73;3.90;;;11.40;98.60;;;;;;5012202;28;20515;-65
2021/05/31 05:53:38;;;;;;;4.10;3.80;;;11.70;97.00;;;;;;5012481;28;20444;-64
2021/05/31 05:56:07;;;;;;;5.93;3.90;;;11.90;96.10;;;;;;5012428;28;20823;-65
2021/05/31 05:58:33;;;;;;;4.70;3.47;;;12.10;96.50;;;;;;5012288;28;20408;-64
2021/05/31 06:01:00;;;;;;;3.90;3.60;;;12.10;95.60;;;;;;5011921;28;20424;-64
2021/05/31 06:03:26;;;;;;;4.40;4.10;;;12.30;95.80;;;;;;5012382;28;20186;-65
2021/05/31 06:05:53;;;;;;;3.63;3.33;;;12.50;94.60;;;;;;5012301;28;20403;-64
2021/05/31 06:08:19;;;;;;;4.67;3.60;;;12.60;94.00;;;;;;5012453;28;20179;-64
2021/05/31 06:10:45;;;;;;;3.10;2.90;;;12.70;94.30;;;;;;5011819;28;20919;-64
2021/05/31 06:13:11;;;;;;;3.23;2.93;;;12.80;93.60;;;;;;5012196;28;20191;-64
2021/05/31 06:15:37;;;;;;;3.70;3.17;;;12.90;93.30;;;;;;5011923;28;20167;-64
2021/05/31 06:18:04;;;;;;;4.73;3.07;;;12.90;92.60;;;;;;5011806;28;20637;-63
2021/05/31 06:20:30;;;;;;;2.97;2.77;;;12.90;93.00;;;;;;5011883;28;20409;-64
2021/05/31 06:22:55;;;;;;;3.83;3.53;;;13.00;93.50;;;;;;5012174;28;20407;-65
2021/05/31 06:25:21;;;;;;;3.40;3.20;;;13.10;93.00;;;;;;5012059;28;20172;-65
2021/05/31 06:27:47;;;;;;;5.07;3.50;;;13.20;92.80;;;;;;5011585;28;20185;-65
2021/05/31 06:30:13;;;;;;;3.67;3.37;;;13.30;92.70;;;;;;5011449;28;20210;-64
2021/05/31 06:32:39;;;;;;;3.30;3.00;;;13.30;93.00;;;;;;5011865;28;20446;-64
2021/05/31 06:35:05;;;;;;;4.30;3.90;;;13.50;91.50;;;;;;5011979;28;20415;-64
2021/05/31 06:37:37;;;;;;;5.00;3.47;;;13.60;91.10;;;;;;5012045;28;20540;-65
2021/05/31 06:40:11;;;;;;;3.97;3.67;;;13.70;91.20;;;;;;5011622;28;20416;-64
2021/05/31 06:42:39;;;;;;;3.83;3.63;;;13.90;91.30;;;;;;5011879;28;20408;-64
2021/05/31 06:45:10;;;;;;;3.43;3.23;;;14.00;92.00;;;;;;5011826;28;20449;-65
2021/05/31 06:47:36;;;;;;;5.17;3.30;;;14.10;91.60;;;;;;5011841;28;20415;-65
2021/05/31 06:50:04;;;;;;;4.63;4.33;;;14.20;92.00;;;;;;5011416;28;20412;-64
2021/05/31 06:52:31;;;;;;;4.00;3.60;;;14.30;91.40;;;;;;5012025;28;20448;-66
2021/05/31 06:54:57;;;;;;;3.50;3.30;;;14.50;91.30;;;;;;5012912;28;20415;-64
2021/05/31 06:57:22;;;;;;;5.33;3.50;;;14.60;90.90;;;;;;5011659;28;20437;-65
2021/05/31 06:59:48;;;;;;;6.03;3.00;;;14.60;91.80;;;;;;5011445;28;20216;-64
2021/05/31 07:02:13;;;;;;;5.83;3.60;;;14.70;91.60;;;;;;5011635;28;20193;-63
2021/05/31 07:04:39;;;;;;;4.13;3.33;;;14.80;91.20;;;;;;5011503;28;20176;-64
2021/05/31 07:07:05;;;;;;;3.63;3.33;;;14.90;92.10;;;;;;5011420;28;20196;-64
2021/05/31 07:09:30;;;;;;;3.83;3.63;;;15.00;90.90;;;;;;5011501;28;20178;-63
2021/05/31 07:11:56;;;;;;;4.00;3.60;;;15.10;90.80;;;;;;5011568;28;20428;-67
2021/05/31 07:14:31;;;;;;;5.23;4.00;;;15.10;91.10;;;;;;5012266;28;20244;-67
2021/05/31 07:16:56;;;;;;;5.50;5.13;;;15.20;91.10;;;;;;5011755;28;20169;-65
2021/05/31 07:19:24;;;;;;;4.20;3.50;;;15.40;90.70;;;;;;5011316;28;20954;-65
2021/05/31 07:21:51;;;;;;;3.33;3.13;;;15.50;90.20;;;;;;5011450;28;20220;-65
2021/05/31 07:24:16;;;;;;;4.00;3.70;;;15.60;90.20;;;;;;5011493;28;20432;-65
2021/05/31 07:26:42;;;;;;;6.40;4.63;;;15.70;89.30;;;;;;5011346;28;20775;-66
2021/05/31 07:29:08;;;;;;;4.30;3.90;;;15.80;89.60;;;;;;5011447;28;20524;-65
2021/05/31 07:31:34;;;;;;;5.77;3.90;;;15.80;90.20;;;;;;5011082;28;20281;-65
2021/05/31 07:33:59;;;;;;;4.17;3.77;;;15.90;88.70;;;;;;5011428;28;20201;-66
2021/05/31 07:36:25;;;;;;;4.23;3.93;;;15.90;88.10;;;;;;5010895;28;20174;-65
2021/05/31 07:38:51;;;;;;;4.37;3.97;;;16.10;88.20;;;;;;5011357;28;20185;-66
2021/05/31 07:41:19;;;;;;;3.80;3.50;;;16.10;87.40;;;;;;5013211;28;20510;-66
2021/05/31 07:43:44;;;;;;;6.30;4.30;;;16.20;89.60;;;;;;5014817;28;20251;-66
2021/05/31 07:46:12;;;;;;;4.17;3.77;;;16.30;87.40;;;;;;5014741;28;20623;-66
2021/05/31 07:48:39;;;;;;;6.93;3.60;;;16.40;88.50;;;;;;5014787;28;20252;-66
2021/05/31 07:51:18;;;;;;;4.70;4.40;;;16.50;87.10;;;;;;5014234;28;20490;-66
2021/05/31 07:53:45;;;;;;;4.50;4.20;;;16.60;87.20;;;;;;5014844;28;20446;-66
2021/05/31 07:56:12;;;;;;;3.63;3.43;;;16.80;87.10;;;;;;5014677;28;20905;-66
2021/05/31 07:58:39;;;;;;;5.30;4.40;;;16.90;86.60;;;;;;5014476;28;20407;-67
2021/05/31 08:01:04;;;;;;;5.07;4.67;;;17.00;85.20;;;;;;5014276;28;20428;-64
2021/05/31 08:03:31;;;;;;;6.10;4.40;;;17.20;86.10;;;;;;5014442;28;20462;-64
2021/05/31 08:05:58;;;;;;;4.43;4.13;;;17.30;84.50;;;;;;5014305;28;20239;-63
2021/05/31 08:08:24;;;;;;;4.33;4.00;;;17.40;84.70;;;;;;5014487;28;20411;-64
2021/05/31 08:10:49;;;;;;;6.50;4.53;;;17.60;85.20;;;;;;5014048;28;20428;-65
2021/05/31 08:13:15;;;;;;;4.13;3.87;;;17.70;82.70;;;;;;5014250;28;20204;-64
2021/05/31 08:15:41;;;;;;;5.13;4.53;;;17.70;84.60;;;;;;4996654;28;20642;-64
2021/05/31 08:18:06;;;;;;;5.03;4.53;;;17.90;84.60;;;;;;5014436;28;20165;-64
2021/05/31 08:20:34;;;;;;;5.20;4.77;;;18.00;82.10;;;;;;5013642;28;20212;-63
2021/05/31 08:23:00;;;;;;;4.67;4.27;;;18.00;78.90;;;;;;5014143;28;20181;-64
2021/05/31 08:25:26;;;;;;;3.87;3.57;;;18.00;79.80;;;;;;5014062;28;20507;-65
2021/05/31 08:27:52;;;;;;;6.73;4.30;;;18.10;79.40;;;;;;5014092;28;20450;-64
2021/05/31 08:30:19;;;;;;;3.97;3.67;;;18.20;81.70;;;;;;5013682;28;20436;-64
2021/05/31 08:32:44;;;;;;;5.10;4.50;;;18.50;79.50;;;;;;5013962;28;20459;-65
2021/05/31 08:35:10;;;;;;;5.80;4.83;;;18.60;81.40;;;;;;5013656;28;20408;-64
2021/05/31 08:37:36;;;;;;;6.67;3.97;;;18.60;78.30;;;;;;5013631;28;20176;-65
2021/05/31 08:40:03;;;;;;;6.13;4.90;;;18.70;77.70;;;;;;5013311;28;20419;-65
2021/05/31 08:42:29;;;;;;;4.70;3.80;;;18.90;80.50;;;;;;5013861;28;20229;-66
2021/05/31 08:44:55;;;;;;;4.37;3.97;;;19.20;79.60;;;;;;5014194;28;20420;-66
2021/05/31 08:47:21;;;;;;;4.70;4.07;;;19.40;80.80;;;;;;5013861;28;20261;-65
2021/05/31 08:49:49;;;;;;;6.17;4.60;;;19.60;78.70;;;;;;5013320;28;20630;-64
2021/05/31 08:52:15;;;;;;;4.83;4.43;;;19.70;78.40;;;;;;5012960;28;20467;-66
2021/05/31 08:54:41;;;;;;;6.50;4.43;;;19.80;76.00;;;;;;5013361;28;20409;-66
2021/05/31 08:57:06;;;;;;;5.13;4.30;;;20.00;78.40;;;;;;5013478;28;20682;-65
2021/05/31 08:59:32;;;;;;;4.70;4.30;;;20.10;74.80;;;;;;5013000;28;20558;-66
2021/05/31 09:01:57;;;;;;;4.07;3.67;;;20.20;77.10;;;;;;5013199;28;20193;-66
2021/05/31 09:04:24;;;;;;;4.63;4.17;;;20.50;78.00;;;;;;5013184;28;20181;-67
2021/05/31 09:06:57;;;;;;;5.30;4.83;;;20.70;75.30;;;;;;5013307;28;20538;-65
2021/05/31 09:09:43;;;;;;;3.93;3.70;;;20.60;71.20;;;;;;5013015;28;20396;-66
2021/05/31 09:12:11;;;;;;;4.57;4.10;;;20.80;74.40;;;;;;5013103;28;20498;-66
2021/05/31 09:14:37;;;;;;;4.40;4.00;;;20.90;74.70;;;;;;5013107;28;20443;-66
2021/05/31 09:17:04;;;;;;;4.33;3.93;;;21.10;74.70;;;;;;5013048;28;20413;-66
2021/05/31 09:19:31;;;;;;;4.70;4.40;;;21.30;73.40;;;;;;5012941;28;20412;-66
2021/05/31 09:22:03;;;;;;;6.10;5.70;;;21.70;75.70;;;;;;5012867;28;20799;-66
2021/05/31 09:24:29;;;;;;;4.60;4.20;;;21.80;71.50;;;;;;5012989;28;20408;-67
2021/05/31 09:26:57;;;;;;;4.33;3.93;;;21.70;71.80;;;;;;5012865;28;20806;-67
2021/05/31 09:29:24;;;;;;;4.47;4.10;;;21.80;73.80;;;;;;5012649;28;20670;-67
2021/05/31 09:32:03;;;;;;;4.40;4.00;;;21.80;71.00;;;;;;5012807;28;20518;-67
2021/05/31 09:34:30;;;;;;;4.93;4.10;;;21.90;71.80;;;;;;5012917;28;20415;-67
2021/05/31 09:36:59;;;;;;;4.00;3.70;;;22.00;70.80;;;;;;5012685;28;20400;-67
2021/05/31 09:39:35;;;;;;;4.03;3.67;;;22.30;71.00;;;;;;5012310;28;20416;-67
2021/05/31 09:42:13;;;;;;;9.00;4.43;;;22.20;68.00;;;;;;5012315;28;20448;-67
2021/05/31 09:44:40;;;;;;;4.73;4.40;;;21.70;64.30;;;;;;5012721;28;20423;-67
2021/05/31 09:47:05;;;;;;;6.37;4.23;;;21.50;68.90;;;;;;5012605;28;20409;-66
2021/05/31 09:49:31;;;;;;;4.13;3.73;;;21.70;69.40;;;;;;5012415;28;20419;-67
2021/05/31 09:52:02;;;;;;;4.10;3.80;;;22.10;69.30;;;;;;5012324;28;20259;-67
2021/05/31 09:54:34;;;;;;;3.83;3.47;;;22.20;65.80;;;;;;5012334;28;20185;-67
2021/05/31 09:57:21;;;;;;;3.50;3.20;;;22.40;67.70;;;;;;5012406;28;20412;-66
2021/05/31 09:59:55;;;;;;;4.70;4.30;;;22.50;65.60;;;;;;5001498;28;20474;-66
2021/05/31 10:10:14;;;;;;;5.80;4.40;;;23.20;63.60;;;;;;5011942;28;20408;-66
2021/05/31 10:12:40;;;;;;;4.40;4.10;;;23.30;66.30;;;;;;5012109;28;20451;-67
2021/05/31 10:15:09;;;;;;;5.43;4.07;;;23.50;66.20;;;;;;5012027;28;20181;-67
2021/05/31 10:17:35;;;;;;;4.37;3.97;;;23.80;64.00;;;;;;5012000;28;20897;-66
2021/05/31 10:20:03;;;;;;;4.20;3.90;;;24.10;64.20;;;;;;5011979;28;20412;-66
2021/05/31 10:22:34;;;;;;;4.40;4.10;;;24.20;64.80;;;;;;5012244;28;20432;-66
2021/05/31 10:25:00;;;;;;;5.37;4.90;;;24.20;64.70;;;;;;5012058;28;20446;-67
2021/05/31 10:27:29;;;;;;;4.87;4.47;;;24.30;63.90;;;;;;5011877;28;20420;-67
2021/05/31 10:29:56;;;;;;;4.30;4.00;;;24.70;61.30;;;;;;5011227;28;20416;-67
2021/05/31 10:32:21;;;;;;;4.80;4.40;;;24.80;61.00;;;;;;5011803;28;20829;-66
2021/05/31 10:34:52;;;;;;;5.20;4.70;;;25.20;59.50;;;;;;5012032;28;20439;-66
2021/05/31 10:37:30;;;;;;;5.47;4.93;;;25.40;61.90;;;;;;5011996;28;20545;-67
2021/05/31 10:40:16;;;;;;;5.37;4.97;;;25.40;59.90;;;;;;5011547;28;20404;-67
2021/05/31 10:42:48;;;;;;;5.17;4.77;;;25.30;57.60;;;;;;5011640;28;20902;-64
2021/05/31 10:45:25;;;;;;;4.20;3.90;;;25.40;60.80;;;;;;5012092;28;20887;-64
2021/05/31 10:48:08;;;;;;;4.30;4.00;;;25.20;58.90;;;;;;5011655;28;20931;-63
2021/05/31 10:50:36;;;;;;;3.37;3.17;;;25.30;60.20;;;;;;5011353;28;20555;-64
2021/05/31 10:53:02;;;;;;;6.90;6.30;;;25.40;59.00;;;;;;5011939;28;20466;-64
2021/05/31 10:55:28;;;;;;;4.07;3.83;;;25.40;60.60;;;;;;5011729;28;20408;-63
2021/05/31 10:57:56;;;;;;;4.87;4.40;;;25.80;58.50;;;;;;5011833;28;20487;-64
2021/05/31 11:00:32;;;;;;;4.97;4.47;;;25.60;58.60;;;;;;5011468;28;20177;-64
2021/05/31 11:03:17;;;;;;;5.10;4.60;;;26.10;58.10;;;;;;5011824;28;20414;-64
2021/05/31 11:05:43;;;;;;;4.17;3.77;;;26.10;58.00;;;;;;5011164;28;20431;-63
2021/05/31 11:08:09;;;;;;;3.97;3.67;;;26.30;58.90;;;;;;5011627;28;20412;-64
2021/05/31 11:10:37;;;;;;;4.03;3.60;;;26.00;56.30;;;;;;5011256;28;20194;-63
2021/05/31 11:13:29;;;;;;;3.77;3.47;;;25.50;57.60;;;;;;5011527;28;20871;-64
2021/05/31 11:16:06;;;;;;;4.83;4.47;;;25.70;58.80;;;;;;5012248;28;20473;-64
2021/05/31 11:18:45;;;;;;;3.70;3.50;;;26.10;58.50;;;;;;5015545;28;20408;-64
2021/05/31 11:21:27;;;;;;;4.70;4.30;;;26.30;57.60;;;;;;5014834;28;20804;-64
2021/05/31 11:24:07;;;;;;;4.93;4.30;;;26.60;57.70;;;;;;5015208;28;20435;-64
2021/05/31 11:26:38;;;;;;;4.87;4.50;;;25.90;55.60;;;;;;5015274;28;20414;-63
2021/05/31 11:29:07;;;;;;;6.10;4.60;;;25.70;57.70;;;;;;5015142;28;20412;-64
2021/05/31 11:31:34;;;;;;;4.73;4.30;;;25.60;58.80;;;;;;5014769;28;20420;-64
2021/05/31 11:34:02;;;;;;;4.40;4.10;;;25.70;59.50;;;;;;5015074;28;20529;-64
2021/05/31 11:36:34;;;;;;;5.63;4.70;;;25.50;57.30;;;;;;5014770;28;20478;-62
2021/05/31 11:39:02;;;;;;;4.87;4.20;;;25.10;56.70;;;;;;5014917;28;20885;-64
2021/05/31 11:41:38;;;;;;;4.30;4.00;;;25.40;59.50;;;;;;5014535;28;20451;-64
2021/05/31 11:44:08;;;;;;;3.87;3.67;;;26.10;58.30;;;;;;5014987;28;20411;-64
2021/05/31 11:47:04;;;;;;;4.40;3.90;;;26.20;56.60;;;;;;5014889;28;20408;-64
2021/05/31 11:49:37;;;;;;;3.67;3.37;;;26.20;56.70;;;;;;5014278;28;20416;-64
2021/05/31 11:52:08;;;;;;;4.70;4.40;;;26.60;57.20;;;;;;5014413;28;20428;-65
2021/05/31 11:54:36;;;;;;;4.47;4.17;;;26.80;56.20;;;;;;5014796;28;20415;-63
2021/05/31 11:57:04;;;;;;;3.90;3.60;;;27.00;58.50;;;;;;5014750;28;20439;-64
2021/05/31 11:59:32;;;;;;;4.20;3.90;;;27.10;56.50;;;;;;5014336;28;20408;-63
2021/05/31 12:01:58;;;;;;;3.93;3.53;;;26.80;56.40;;;;;;5014317;28;20420;-64
2021/05/31 12:04:25;;;;;;;4.30;4.00;;;27.00;55.40;;;;;;5014584;28;20411;-64
2021/05/31 12:07:01;;;;;;;4.30;4.00;;;26.80;55.00;;;;;;5014384;28;20201;-64
2021/05/31 12:09:27;;;;;;;5.60;5.17;;;27.00;54.10;;;;;;5014150;28;20971;-64
2021/05/31 12:11:53;;;;;;;4.60;4.20;;;26.90;54.70;;;;;;5014266;28;20460;-63
2021/05/31 12:14:20;;;;;;;3.60;3.30;;;27.10;57.20;;;;;;5014305;28;20505;-63
2021/05/31 12:17:13;;;;;;;7.20;4.07;;;26.90;55.60;;;;;;5014139;28;20450;-64
2021/05/31 12:19:40;;;;;;;4.67;4.27;;;27.00;58.60;;;;;;5011325;28;20444;-64
2021/05/31 12:22:07;;;;;;;5.20;4.27;;;27.10;56.80;;;;;;5014044;28;20424;-64
2021/05/31 12:24:35;;;;;;;3.73;3.53;;;27.20;55.80;;;;;;5013807;28;20408;-64
2021/05/31 12:27:01;;;;;;;4.30;4.00;;;27.40;57.00;;;;;;5013449;28;20487;-63
2021/05/31 12:29:38;;;;;;;4.43;4.10;;;27.70;57.20;;;;;;5013881;28;20490;-63
2021/05/31 12:32:13;;;;;;;4.63;3.70;;;28.00;55.70;;;;;;5013989;28;20478;-64
2021/05/31 12:34:40;;;;;;;3.97;3.77;;;27.80;55.40;;;;;;5013875;28;20430;-64
2021/05/31 12:37:08;;;;;;;3.40;3.10;;;28.00;55.50;;;;;;5013738;28;20954;-63
2021/05/31 12:39:34;;;;;;;3.70;3.40;;;27.90;52.80;;;;;;5013598;28;20822;-64
2021/05/31 12:42:03;;;;;;;3.60;3.30;;;27.20;53.20;;;;;;5013520;28;20447;-64
2021/05/31 12:44:29;;;;;;;4.63;4.30;;;27.40;55.10;;;;;;5013590;28;20408;-64
2021/05/31 12:47:06;;;;;;;5.10;4.70;;;27.90;55.70;;;;;;5013564;28;20932;-64
2021/05/31 12:49:31;;;;;;;4.23;3.93;;;27.90;54.40;;;;;;5013387;28;20400;-64
2021/05/31 12:51:58;;;;;;;5.13;3.67;;;28.00;51.80;;;;;;5013396;28;20477;-63
2021/05/31 12:54:24;;;;;;;3.90;3.70;;;28.00;51.10;;;;;;5013585;28;20174;-64
2021/05/31 12:56:51;;;;;;;5.00;3.67;;;28.00;55.80;;;;;;5013202;28;20784;-64
2021/05/31 12:59:26;;;;;;;4.33;4.00;;;28.10;53.20;;;;;;5013234;28;20415;-64
2021/05/31 13:01:51;;;;;;;3.60;3.37;;;28.40;56.10;;;;;;5013188;28;20530;-64
2021/05/31 13:04:28;;;;;;;4.63;4.03;;;28.80;53.90;;;;;;5013405;28;20464;-65
2021/05/31 13:06:54;;;;;;;3.33;3.13;;;28.80;54.10;;;;;;5013315;28;20749;-65
2021/05/31 13:09:25;;;;;;;4.83;4.43;;;28.80;50.80;;;;;;5013091;28;20490;-67
2021/05/31 13:11:53;;;;;;;4.60;4.20;;;28.20;50.50;;;;;;5012993;28;20181;-65
2021/05/31 13:14:22;;;;;;;4.30;3.93;;;28.30;52.20;;;;;;5012109;28;20474;-64
2021/05/31 13:16:52;;;;;;;4.60;4.17;;;28.60;53.90;;;;;;5013277;28;20423;-64
2021/05/31 13:19:18;;;;;;;4.40;4.10;;;28.80;52.90;;;;;;5012866;28;20404;-64
2021/05/31 13:21:44;;;;;;;2.90;2.70;;;29.00;50.00;;;;;;5012894;28;20988;-65
2021/05/31 13:24:10;;;;;;;5.60;4.63;;;28.90;52.70;;;;;;5012999;28;20411;-65